createdAt,value
2023-03-10T00:01:01.605Z,98135.36
2023-03-10T00:02:04.326Z,98143.41
2023-03-10T00:03:07.151Z,98151.45
2023-03-10T00:04:10.224Z,98141.72
2023-03-10T00:05:13.280Z,98144.40
2023-03-10T00:06:18.174Z,98145.39
2023-03-10T00:07:20.775Z,98143.73
2023-03-10T00:08:27.066Z,98140.02
2023-03-10T00:09:28.959Z,98140.02
2023-03-10T00:10:31.621Z,98135.52
2023-03-10T00:11:34.206Z,98141.72
2023-03-10T00:12:36.525Z,98141.87
2023-03-10T00:13:38.887Z,98140.89
2023-03-10T00:14:42.733Z,98143.56
2023-03-10T00:15:45.494Z,98142.71
2023-03-10T00:16:48.022Z,98147.25
2023-03-10T00:17:52.869Z,98153.44
2023-03-10T00:18:56.496Z,98156.13
2023-03-10T00:19:59.173Z,98159.84
2023-03-10T00:21:02.822Z,98161.49
2023-03-10T00:22:05.747Z,98158.81
2023-03-10T00:23:08.136Z,98170.41
2023-03-10T00:24:10.890Z,98171.40
2023-03-10T00:25:14.971Z,98167.72
2023-03-10T00:26:18.860Z,98161.49
2023-03-10T00:27:21.530Z,98166.03
2023-03-10T00:28:25.800Z,98167.72
2023-03-10T00:29:28.385Z,98167.89
2023-03-10T00:30:33.485Z,98172.23
2023-03-10T00:31:36.655Z,98157.98
2023-03-10T00:32:39.536Z,98150.77
2023-03-10T00:33:43.175Z,98147.25
2023-03-10T00:34:45.801Z,98159.84
2023-03-10T00:35:49.479Z,98157.16
2023-03-10T00:36:52.669Z,98169.71
2023-03-10T00:37:55.688Z,98170.57
2023-03-10T00:39:00.994Z,98167.02
2023-03-10T00:40:07.833Z,98168.88
2023-03-10T00:41:13.807Z,98166.36
2023-03-10T00:42:16.437Z,98175.23
2023-03-10T00:43:19.019Z,98171.73
2023-03-10T00:44:22.107Z,98176.23
2023-03-10T00:45:26.209Z,98174.57
2023-03-10T00:46:31.848Z,98175.56
2023-03-10T00:47:34.490Z,98183.78
2023-03-10T00:48:37.035Z,98180.23
2023-03-10T00:49:39.731Z,98182.08
2023-03-10T00:50:42.568Z,98185.76
2023-03-10T00:51:45.033Z,98183.08
2023-03-10T00:52:50.354Z,98191.28
2023-03-10T00:53:53.712Z,98195.82
2023-03-10T00:54:57.350Z,98196.66
2023-03-10T00:57:20.577Z,98221.69
2023-03-10T00:58:23.621Z,98222.98
2023-03-10T00:59:26.808Z,98216.72
2023-03-10T01:00:30.058Z,98223.07
2023-03-10T01:01:36.127Z,98234.67
2023-03-10T01:02:39.861Z,98246.23
2023-03-10T01:03:42.808Z,98250.77
2023-03-10T01:04:47.641Z,98249.07
2023-03-10T01:05:50.334Z,98257.28
2023-03-10T01:06:53.359Z,98263.48
2023-03-10T01:07:57.018Z,98263.48
2023-03-10T01:09:01.215Z,98273.38
2023-03-10T01:10:04.812Z,98274.37
2023-03-10T01:11:08.323Z,98278.04
2023-03-10T01:12:11.423Z,98278.04
2023-03-10T01:13:14.583Z,98287.94
2023-03-10T01:14:19.566Z,98286.95
2023-03-10T01:15:23.267Z,98283.41
2023-03-10T01:16:26.687Z,98279.73
2023-03-10T01:17:31.098Z,98275.67
2023-03-10T01:18:33.612Z,98275.67
2023-03-10T01:19:36.197Z,98297.37
2023-03-10T01:20:40.653Z,98297.37
2023-03-10T01:21:43.659Z,98293.86
2023-03-10T01:22:46.227Z,98294.53
2023-03-10T01:23:49.593Z,98303.47
2023-03-10T01:24:52.659Z,98308.84
2023-03-10T01:25:55.370Z,98306.16
2023-03-10T01:26:58.071Z,98313.19
2023-03-10T01:28:00.505Z,98314.88
2023-03-10T01:29:02.954Z,98314.05
2023-03-10T01:30:07.642Z,98316.73
2023-03-10T01:31:10.259Z,98319.41
2023-03-10T01:32:13.247Z,98322.92
2023-03-10T01:33:16.140Z,98326.59
2023-03-10T01:34:18.735Z,98327.30
2023-03-10T01:35:21.110Z,98327.30
2023-03-10T01:36:25.627Z,98330.98
2023-03-10T01:37:29.281Z,98339.86
2023-03-10T01:38:31.815Z,98335.36
2023-03-10T01:39:36.829Z,98334.49
2023-03-10T01:40:39.731Z,98347.91
2023-03-10T01:41:43.645Z,98336.34
2023-03-10T01:42:48.036Z,98341.55
2023-03-10T01:43:55.607Z,98343.41
2023-03-10T01:45:08.614Z,98340.72
2023-03-10T01:46:33.494Z,98346.09
2023-03-10T01:47:37.858Z,98341.55
2023-03-10T01:48:40.578Z,98349.61
2023-03-10T01:49:44.121Z,98350.59
2023-03-10T01:50:48.712Z,98354.97
2023-03-10T01:51:55.218Z,98353.28
2023-03-10T01:52:59.150Z,98360.49
2023-03-10T01:54:03.650Z,98358.64
2023-03-10T01:55:16.809Z,98364.01
2023-03-10T01:56:19.603Z,98363.18
2023-03-10T01:57:24.529Z,98367.72
2023-03-10T01:58:30.368Z,98371.23
2023-03-10T01:59:32.875Z,98370.39
2023-03-10T02:00:35.705Z,98370.39
2023-03-10T02:01:38.665Z,98370.39
2023-03-10T02:02:57.833Z,98387.33
2023-03-10T02:04:03.474Z,98390.84
2023-03-10T02:05:07.319Z,98394.55
2023-03-10T02:06:11.932Z,98395.53
2023-03-10T02:07:17.172Z,98397.39
2023-03-10T02:08:20.145Z,98383.08
2023-03-10T02:09:22.742Z,98401.86
2023-03-10T02:10:26.193Z,98401.02
2023-03-10T02:11:28.999Z,98403.70
2023-03-10T02:12:31.713Z,98402.75
2023-03-10T02:13:35.020Z,98412.59
2023-03-10T02:14:38.369Z,98409.91
2023-03-10T02:15:40.843Z,98411.63
2023-03-10T02:16:44.165Z,98408.12
2023-03-10T02:17:47.865Z,98406.27
2023-03-10T02:18:50.577Z,98419.69
2023-03-10T02:20:15.923Z,98420.64
2023-03-10T02:21:40.475Z,98417.95
2023-03-10T02:22:44.101Z,98425.17
2023-03-10T02:24:22.160Z,98420.80
2023-03-10T02:27:24.157Z,98429.80
2023-03-10T02:28:26.730Z,98435.50
2023-03-10T02:29:45.552Z,98436.65
2023-03-10T02:31:57.434Z,98449.20
2023-03-10T02:33:04.321Z,98457.44
2023-03-10T02:34:07.012Z,98468.31
2023-03-10T02:35:09.590Z,98461.10
2023-03-10T02:36:19.602Z,98476.21
2023-03-10T02:37:24.405Z,98475.23
2023-03-10T02:38:28.191Z,98476.21
2023-03-10T02:39:31.098Z,98472.55
2023-03-10T02:40:39.254Z,98477.05
2023-03-10T02:41:45.417Z,98487.62
2023-03-10T02:42:49.249Z,98484.94
2023-03-10T02:43:51.804Z,98493.86
2023-03-10T02:44:56.542Z,98491.17
2023-03-10T02:46:01.878Z,98489.33
2023-03-10T02:47:05.063Z,98485.66
2023-03-10T02:48:11.734Z,98491.85
2023-03-10T02:49:16.212Z,98488.34
2023-03-10T02:50:20.405Z,98492.69
2023-03-10T02:51:25.951Z,98493.55
2023-03-10T02:52:40.860Z,98493.55
2023-03-10T02:53:43.791Z,98499.75
2023-03-10T02:54:47.858Z,98501.45
2023-03-10T02:55:51.203Z,98500.61
2023-03-10T02:56:54.106Z,98507.80
2023-03-10T02:57:57.822Z,98504.12
2023-03-10T02:59:01.198Z,98501.45
2023-03-10T03:00:06.722Z,98498.77
2023-03-10T03:01:09.498Z,98500.61
2023-03-10T03:02:13.881Z,98500.61
2023-03-10T03:03:17.025Z,98496.08
2023-03-10T03:04:20.143Z,98506.81
2023-03-10T03:05:23.521Z,98510.33
2023-03-10T03:06:26.841Z,98511.88
2023-03-10T03:07:30.641Z,98507.48
2023-03-10T03:08:33.521Z,98509.19
2023-03-10T03:09:36.333Z,98503.82
2023-03-10T03:10:40.029Z,98509.06
2023-03-10T03:11:43.936Z,98505.55
2023-03-10T03:12:50.068Z,98512.77
2023-03-10T03:13:56.002Z,98508.23
2023-03-10T03:14:59.356Z,98513.60
2023-03-10T03:16:02.257Z,98517.12
2023-03-10T03:17:05.360Z,98525.17
2023-03-10T03:18:08.125Z,98522.48
2023-03-10T03:19:11.123Z,98530.37
2023-03-10T03:20:14.231Z,98525.88
2023-03-10T03:21:18.418Z,98530.37
2023-03-10T03:22:21.771Z,98533.93
2023-03-10T03:23:24.804Z,98538.44
2023-03-10T03:24:27.931Z,98541.00
2023-03-10T03:25:30.636Z,98540.13
2023-03-10T03:26:33.921Z,98537.45
2023-03-10T03:27:44.749Z,98539.14
2023-03-10T03:28:47.553Z,98538.16
2023-03-10T03:29:50.565Z,98546.20
2023-03-10T03:30:53.282Z,98541.67
2023-03-10T03:31:56.217Z,98538.16
2023-03-10T03:33:01.591Z,98543.52
2023-03-10T03:34:04.715Z,98539.83
2023-03-10T03:35:18.672Z,98540.84
2023-03-10T03:36:21.399Z,98544.52
2023-03-10T03:37:24.457Z,98548.03
2023-03-10T03:38:28.527Z,98549.88
2023-03-10T03:39:31.283Z,98553.55
2023-03-10T03:40:36.728Z,98554.41
2023-03-10T03:41:40.345Z,98555.40
2023-03-10T03:42:45.254Z,98558.91
2023-03-10T03:43:48.711Z,98565.14
2023-03-10T03:44:51.854Z,98560.61
2023-03-10T03:45:55.075Z,98565.98
2023-03-10T03:46:58.610Z,98572.18
2023-03-10T03:48:01.337Z,98580.23
2023-03-10T03:49:05.550Z,98577.55
2023-03-10T03:50:10.113Z,98575.73
2023-03-10T03:51:12.941Z,98585.59
2023-03-10T03:52:16.587Z,98582.77
2023-03-10T03:53:19.346Z,98578.27
2023-03-10T03:54:22.074Z,98584.46
2023-03-10T03:55:25.886Z,98592.52
2023-03-10T03:56:28.967Z,98581.78
2023-03-10T03:57:32.102Z,98584.46
2023-03-10T03:58:35.418Z,98593.34
2023-03-10T03:59:38.651Z,98591.53
2023-03-10T04:00:41.761Z,98599.58
2023-03-10T04:01:44.798Z,98593.34
2023-03-10T04:02:47.686Z,98604.95
2023-03-10T04:03:50.116Z,98595.05
2023-03-10T04:04:54.942Z,98603.09
2023-03-10T04:05:58.562Z,98599.58
2023-03-10T04:07:01.441Z,98608.47
2023-03-10T04:08:06.300Z,98609.45
2023-03-10T04:09:09.921Z,98616.66
2023-03-10T04:10:14.799Z,98616.52
2023-03-10T04:11:18.367Z,98616.52
2023-03-10T04:12:21.828Z,98618.37
2023-03-10T04:13:24.362Z,98618.37
2023-03-10T04:14:26.910Z,98621.88
2023-03-10T04:15:30.308Z,98627.25
2023-03-10T04:16:33.496Z,98623.58
2023-03-10T04:17:39.163Z,98628.95
2023-03-10T04:18:41.790Z,98631.63
2023-03-10T04:19:54.112Z,98630.65
2023-03-10T04:20:51.941Z,98630.65
2023-03-10T04:21:55.238Z,98636.02
2023-03-10T04:22:58.518Z,98633.33
2023-03-10T04:24:03.283Z,98627.09
2023-03-10T04:25:09.089Z,98634.02
2023-03-10T04:26:11.969Z,98627.09
2023-03-10T04:27:15.257Z,98631.48
2023-03-10T04:28:18.168Z,98625.12
2023-03-10T04:29:23.961Z,98626.83
2023-03-10T04:30:29.394Z,98631.33
2023-03-10T04:31:32.849Z,98629.52
2023-03-10T04:32:36.578Z,98632.20
2023-03-10T04:33:39.226Z,98639.38
2023-03-10T04:34:42.310Z,98640.25
2023-03-10T04:35:48.344Z,98642.94
2023-03-10T04:36:52.360Z,98640.25
2023-03-10T04:37:55.828Z,98648.30
2023-03-10T04:39:00.120Z,98648.30
2023-03-10T04:40:07.934Z,98642.06
2023-03-10T04:41:11.622Z,98650.98
2023-03-10T04:42:16.341Z,98654.50
2023-03-10T04:43:18.925Z,98650.98
2023-03-10T04:44:30.971Z,98656.35
2023-03-10T04:45:26.975Z,98653.67
2023-03-10T04:46:31.187Z,98653.67
2023-03-10T04:47:33.862Z,98660.70
2023-03-10T04:48:36.321Z,98659.87
2023-03-10T04:49:39.241Z,98656.35
2023-03-10T04:50:43.900Z,98664.41
2023-03-10T04:51:48.359Z,98663.39
2023-03-10T04:52:52.078Z,98659.87
2023-03-10T04:53:59.880Z,98665.23
2023-03-10T04:55:05.391Z,98662.55
2023-03-10T04:56:08.440Z,98665.23
2023-03-10T04:57:12.696Z,98658.02
2023-03-10T04:58:15.754Z,98670.61
2023-03-10T04:59:21.265Z,98673.30
2023-03-10T05:00:24.379Z,98666.94
2023-03-10T05:01:29.928Z,98670.45
2023-03-10T05:02:34.919Z,98670.45
2023-03-10T05:03:39.165Z,98666.79
2023-03-10T05:04:42.952Z,98667.77
2023-03-10T05:05:46.848Z,98673.97
2023-03-10T05:06:50.898Z,98673.97
2023-03-10T05:07:58.190Z,98670.30
2023-03-10T05:09:02.741Z,98675.67
2023-03-10T05:10:07.157Z,98679.34
2023-03-10T05:11:10.656Z,98674.84
2023-03-10T05:12:14.336Z,98675.67
2023-03-10T05:13:17.511Z,98672.99
2023-03-10T05:14:20.229Z,98674.84
2023-03-10T05:15:23.111Z,98674.84
2023-03-10T05:16:25.938Z,98685.58
2023-03-10T05:17:30.068Z,98685.58
2023-03-10T05:18:32.756Z,98684.71
2023-03-10T05:19:36.855Z,98681.91
2023-03-10T05:20:40.901Z,98689.96
2023-03-10T05:21:44.067Z,98682.03
2023-03-10T05:22:46.654Z,98683.73
2023-03-10T05:23:49.937Z,98676.66
2023-03-10T05:24:53.473Z,98677.53
2023-03-10T05:25:56.238Z,98689.25
2023-03-10T05:27:01.729Z,98689.25
2023-03-10T05:28:04.670Z,98690.95
2023-03-10T05:29:07.377Z,98698.13
2023-03-10T05:30:14.944Z,98699.00
2023-03-10T05:31:20.359Z,98698.13
2023-03-10T05:32:24.460Z,98694.61
2023-03-10T05:33:31.277Z,98699.15
2023-03-10T05:34:33.593Z,98702.81
2023-03-10T05:35:38.402Z,98703.66
2023-03-10T05:36:42.394Z,98708.19
2023-03-10T05:37:45.370Z,98716.23
2023-03-10T05:38:48.205Z,98714.69
2023-03-10T05:39:51.013Z,98711.85
2023-03-10T05:40:55.994Z,98711.02
2023-03-10T05:41:59.075Z,98713.85
2023-03-10T05:43:03.376Z,98713.85
2023-03-10T05:44:06.082Z,98713.70
2023-03-10T05:45:10.754Z,98712.00
2023-03-10T05:46:14.148Z,98710.30
2023-03-10T05:47:21.986Z,98722.73
2023-03-10T05:48:25.782Z,98719.37
2023-03-10T05:49:28.869Z,98718.36
2023-03-10T05:50:32.379Z,98722.89
2023-03-10T05:51:35.886Z,98723.72
2023-03-10T05:52:40.158Z,98726.55
2023-03-10T05:53:43.064Z,98729.09
2023-03-10T05:54:49.237Z,98734.45
2023-03-10T05:55:53.225Z,98729.95
2023-03-10T05:56:56.654Z,98733.63
2023-03-10T05:57:59.794Z,98745.91
2023-03-10T05:59:02.566Z,98744.20
2023-03-10T06:00:10.856Z,98738.84
2023-03-10T06:01:17.690Z,98738.84
2023-03-10T06:02:20.670Z,98755.78
2023-03-10T06:03:25.323Z,98756.64
2023-03-10T06:04:30.105Z,98757.63
2023-03-10T06:05:32.718Z,98759.48
2023-03-10T06:06:35.858Z,98764.70
2023-03-10T06:07:38.783Z,98764.84
2023-03-10T06:08:43.433Z,98755.93
2023-03-10T06:09:47.358Z,98759.33
2023-03-10T06:10:53.195Z,98762.02
2023-03-10T06:11:57.003Z,98756.64
2023-03-10T06:12:59.602Z,98762.85
2023-03-10T06:14:03.716Z,98766.40
2023-03-10T06:15:07.806Z,98769.08
2023-03-10T06:16:11.042Z,98765.39
2023-03-10T06:17:13.983Z,98760.02
2023-03-10T06:18:18.169Z,98761.87
2023-03-10T06:19:21.832Z,98770.75
2023-03-10T06:20:25.638Z,98767.09
2023-03-10T06:21:28.878Z,98766.25
2023-03-10T06:22:31.585Z,98766.25
2023-03-10T06:23:34.864Z,98771.63
2023-03-10T06:24:37.810Z,98778.81
2023-03-10T06:25:42.330Z,98768.94
2023-03-10T06:26:45.272Z,98777.83
2023-03-10T06:27:48.354Z,98778.66
2023-03-10T06:28:50.932Z,98781.34
2023-03-10T06:29:55.053Z,98782.21
2023-03-10T06:32:13.020Z,98786.58
2023-03-10T06:33:15.642Z,98790.27
2023-03-10T06:34:18.524Z,98789.39
2023-03-10T06:35:22.136Z,98785.73
2023-03-10T06:36:28.130Z,98777.83
2023-03-10T06:37:31.367Z,98780.36
2023-03-10T06:38:35.067Z,98775.86
2023-03-10T06:39:41.767Z,98776.84
2023-03-10T06:40:44.540Z,98774.99
2023-03-10T06:41:47.538Z,98781.23
2023-03-10T06:42:50.671Z,98779.52
2023-03-10T06:43:53.379Z,98777.83
2023-03-10T06:44:56.162Z,98775.14
2023-03-10T06:45:58.714Z,98780.36
2023-03-10T06:47:04.169Z,98784.03
2023-03-10T06:48:06.724Z,98787.58
2023-03-10T06:49:12.100Z,98784.03
2023-03-10T06:50:15.510Z,98787.58
2023-03-10T06:51:20.206Z,98779.52
2023-03-10T06:52:23.329Z,98784.89
2023-03-10T06:53:27.067Z,98778.66
2023-03-10T06:54:29.460Z,98789.39
2023-03-10T06:55:32.604Z,98779.52
2023-03-10T06:56:35.290Z,98792.95
2023-03-10T06:57:37.922Z,98785.88
2023-03-10T06:58:41.387Z,98780.51
2023-03-10T06:59:43.963Z,98778.81
2023-03-10T07:00:46.633Z,98781.34
2023-03-10T07:01:50.184Z,98783.34
2023-03-10T07:02:53.940Z,98788.56
2023-03-10T07:03:56.892Z,98788.71
2023-03-10T07:04:59.447Z,98783.34
2023-03-10T07:06:02.272Z,98781.48
2023-03-10T07:07:05.232Z,98796.77
2023-03-10T07:08:08.773Z,98781.64
2023-03-10T07:09:11.264Z,98789.69
2023-03-10T07:10:15.778Z,98790.55
2023-03-10T07:11:18.417Z,98790.55
2023-03-10T07:12:21.122Z,98787.88
2023-03-10T07:13:23.814Z,98787.88
2023-03-10T07:14:26.335Z,98789.69
2023-03-10T07:15:29.017Z,98785.19
2023-03-10T07:16:31.969Z,98783.34
2023-03-10T07:17:34.994Z,98787.88
2023-03-10T07:18:37.627Z,98787.88
2023-03-10T07:19:40.401Z,98787.88
2023-03-10T07:20:47.579Z,98792.23
2023-03-10T07:21:51.663Z,98787.73
2023-03-10T07:22:54.704Z,98786.86
2023-03-10T07:23:59.020Z,98785.88
2023-03-10T07:25:01.864Z,98780.66
2023-03-10T07:26:07.023Z,98784.17
2023-03-10T07:27:09.821Z,98777.97
2023-03-10T07:28:13.607Z,98780.66
2023-03-10T07:29:16.403Z,98778.95
2023-03-10T07:30:20.383Z,98780.80
2023-03-10T07:31:23.882Z,98777.25
2023-03-10T07:32:27.581Z,98778.12
2023-03-10T07:33:30.929Z,98780.09
2023-03-10T07:34:33.532Z,98781.94
2023-03-10T07:35:37.070Z,98785.60
2023-03-10T07:36:41.396Z,98785.60
2023-03-10T07:37:44.446Z,98787.30
2023-03-10T07:38:48.529Z,98790.13
2023-03-10T07:39:56.117Z,98793.66
2023-03-10T07:41:00.327Z,98799.02
2023-03-10T07:42:03.697Z,98805.37
2023-03-10T07:43:08.668Z,98814.28
2023-03-10T07:44:11.750Z,98816.11
2023-03-10T07:45:14.298Z,98815.27
2023-03-10T07:46:17.762Z,98812.59
2023-03-10T07:47:20.422Z,98811.75
2023-03-10T07:48:23.043Z,98812.59
2023-03-10T07:49:25.745Z,98822.48
2023-03-10T07:50:28.345Z,98823.17
2023-03-10T07:51:31.325Z,98824.16
2023-03-10T07:52:33.935Z,98822.34
2023-03-10T07:53:37.812Z,98826.73
2023-03-10T07:54:40.534Z,98825.02
2023-03-10T07:55:44.077Z,98824.16
2023-03-10T07:56:49.991Z,98833.08
2023-03-10T07:57:52.309Z,98833.91
2023-03-10T07:58:54.863Z,98850.02
2023-03-10T07:59:57.451Z,98850.02
2023-03-10T08:01:00.776Z,98866.12
2023-03-10T08:02:03.707Z,98859.91
2023-03-10T08:03:07.279Z,98865.28
2023-03-10T08:04:13.845Z,98860.75
2023-03-10T08:05:17.533Z,98852.70
2023-03-10T08:07:36.226Z,98850.87
2023-03-10T08:08:39.877Z,98862.60
2023-03-10T08:09:43.294Z,98860.89
2023-03-10T08:10:46.707Z,98866.27
2023-03-10T08:11:49.400Z,98859.91
2023-03-10T08:12:54.420Z,98862.60
2023-03-10T08:13:57.542Z,98854.69
2023-03-10T08:15:00.185Z,98858.21
2023-03-10T08:16:03.348Z,98854.55
2023-03-10T08:17:07.473Z,98852.70
2023-03-10T08:18:10.640Z,98860.89
2023-03-10T08:19:14.292Z,98862.89
2023-03-10T08:20:18.553Z,98859.34
2023-03-10T08:21:21.460Z,98862.02
2023-03-10T08:22:24.289Z,98850.74
2023-03-10T08:23:26.711Z,98842.52
2023-03-10T08:24:29.260Z,98842.52
2023-03-10T08:25:32.174Z,98850.28
2023-03-10T08:26:35.569Z,98854.81
2023-03-10T08:27:40.225Z,98859.45
2023-03-10T08:28:44.127Z,98854.23
2023-03-10T08:29:46.856Z,98860.43
2023-03-10T08:31:03.743Z,98858.62
2023-03-10T08:31:54.189Z,98859.59
2023-03-10T08:32:57.169Z,98861.30
2023-03-10T08:33:59.803Z,98851.69
2023-03-10T08:35:04.378Z,98850.13
2023-03-10T08:36:21.452Z,98847.59
2023-03-10T08:37:25.156Z,98840.67
2023-03-10T08:38:28.281Z,98836.42
2023-03-10T08:39:30.865Z,98853.39
2023-03-10T08:40:33.495Z,98861.55
2023-03-10T08:41:37.885Z,98858.17
2023-03-10T08:42:40.905Z,98859.16
2023-03-10T08:43:43.523Z,98859.30
2023-03-10T08:44:45.991Z,98843.20
2023-03-10T08:45:49.016Z,98843.20
2023-03-10T08:46:52.642Z,98858.02
2023-03-10T08:47:55.370Z,98856.47
2023-03-10T08:48:58.041Z,98852.08
2023-03-10T08:50:00.629Z,98848.56
2023-03-10T08:51:03.770Z,98844.17
2023-03-10T08:52:08.031Z,98841.49
2023-03-10T08:53:12.135Z,98845.19
2023-03-10T08:54:17.076Z,98846.86
2023-03-10T08:55:19.946Z,98847.72
2023-03-10T08:56:23.011Z,98837.97
2023-03-10T08:57:26.614Z,98828.22
2023-03-10T08:58:29.531Z,98825.55
2023-03-10T08:59:32.568Z,98827.39
2023-03-10T09:00:36.454Z,98826.55
2023-03-10T09:01:39.517Z,98821.30
2023-03-10T09:02:42.349Z,98825.83
2023-03-10T09:03:45.386Z,98830.22
2023-03-10T09:04:48.868Z,98827.39
2023-03-10T09:05:52.432Z,98835.98
2023-03-10T09:06:56.864Z,98834.02
2023-03-10T09:07:59.500Z,98827.54
2023-03-10T09:09:03.038Z,98825.55
2023-03-10T09:10:08.577Z,98829.09
2023-03-10T09:11:18.194Z,98828.95
2023-03-10T09:12:20.802Z,98843.06
2023-03-10T09:13:23.699Z,98847.45
2023-03-10T09:14:26.903Z,98849.98
2023-03-10T09:15:30.648Z,98851.69
2023-03-10T09:16:34.810Z,98850.70
2023-03-10T09:17:40.613Z,98847.02
2023-03-10T09:18:42.721Z,98854.08
2023-03-10T09:19:45.359Z,98854.92
2023-03-10T09:20:48.882Z,98855.78
2023-03-10T09:21:51.535Z,98857.48
2023-03-10T09:22:54.673Z,98861.84
2023-03-10T09:23:57.281Z,98861.84
2023-03-10T09:25:01.697Z,98853.94
2023-03-10T09:26:04.925Z,98848.72
2023-03-10T09:27:08.990Z,98846.18
2023-03-10T09:28:11.585Z,98842.77
2023-03-10T09:29:14.618Z,98850.97
2023-03-10T09:30:18.123Z,98844.77
2023-03-10T09:31:32.585Z,98845.59
2023-03-10T09:32:36.448Z,98842.08
2023-03-10T09:33:39.736Z,98839.54
2023-03-10T09:34:42.324Z,98835.16
2023-03-10T09:35:52.980Z,98830.77
2023-03-10T09:36:51.159Z,98823.88
2023-03-10T09:37:54.364Z,98827.54
2023-03-10T09:38:57.849Z,98826.67
2023-03-10T09:40:01.591Z,98835.44
2023-03-10T09:41:18.381Z,98832.76
2023-03-10T09:42:38.716Z,98837.29
2023-03-10T09:43:48.285Z,98837.29
2023-03-10T09:45:00.373Z,98829.09
2023-03-10T09:46:20.125Z,98824.71
2023-03-10T09:47:42.508Z,98837.40
2023-03-10T09:48:54.910Z,98836.71
2023-03-10T09:50:16.069Z,98832.47
2023-03-10T09:51:22.236Z,98836.27
2023-03-10T09:52:28.087Z,98838.26
2023-03-10T09:54:10.785Z,98837.53
2023-03-10T09:55:22.264Z,98836.84
2023-03-10T09:57:46.242Z,98848.56
2023-03-10T10:00:07.703Z,98847.86
2023-03-10T10:01:16.617Z,98848.83
2023-03-10T10:03:52.073Z,98858.59
2023-03-10T10:04:44.672Z,98859.55
2023-03-10T10:05:49.619Z,98859.55
2023-03-10T10:06:52.843Z,98852.48
2023-03-10T10:07:56.825Z,98857.71
2023-03-10T10:10:24.231Z,98845.88
2023-03-10T10:11:27.149Z,98849.53
2023-03-10T10:12:29.842Z,98845.86
2023-03-10T10:13:34.661Z,98831.62
2023-03-10T10:14:40.343Z,98839.52
2023-03-10T10:15:50.055Z,98831.19
2023-03-10T10:19:57.027Z,98822.87
2023-03-10T10:21:15.782Z,98825.55
2023-03-10T10:22:24.416Z,98818.38
2023-03-10T10:23:36.377Z,98814.67
2023-03-10T10:24:40.052Z,98805.50
2023-03-10T10:25:42.855Z,98793.80
2023-03-10T10:26:45.794Z,98782.08
2023-03-10T10:29:14.793Z,98772.03
2023-03-10T10:30:27.578Z,98779.11
2023-03-10T10:31:34.967Z,98782.63
2023-03-10T10:32:58.728Z,98786.03
2023-03-10T10:34:20.076Z,98786.86
2023-03-10T10:35:24.661Z,98792.95
2023-03-10T10:37:48.749Z,98788.27
2023-03-10T10:38:53.156Z,98790.13
2023-03-10T10:39:56.921Z,98800.86
2023-03-10T10:41:08.136Z,98800.86
2023-03-10T10:42:27.360Z,98808.76
2023-03-10T10:43:30.862Z,98802.41
2023-03-10T10:44:37.763Z,98817.64
2023-03-10T10:45:41.397Z,98817.64
2023-03-10T10:46:52.773Z,98819.34
2023-03-10T10:47:56.248Z,98825.55
2023-03-10T10:49:05.203Z,98828.09
2023-03-10T10:50:23.191Z,98828.23
2023-03-10T10:52:45.720Z,98855.67
2023-03-10T10:53:49.142Z,98849.55
2023-03-10T10:54:58.359Z,98841.50
2023-03-10T10:56:15.702Z,98845.05
2023-03-10T10:57:30.565Z,98839.69
2023-03-10T10:58:37.860Z,98837.84
2023-03-10T10:59:40.789Z,98834.17
2023-03-10T11:00:44.637Z,98826.96
2023-03-10T11:02:00.540Z,98828.81
2023-03-10T11:03:22.284Z,98818.08
2023-03-10T11:04:27.302Z,98814.55
2023-03-10T11:05:38.561Z,98808.17
2023-03-10T11:06:42.213Z,98805.49
2023-03-10T11:07:44.926Z,98801.14
2023-03-10T11:08:50.249Z,98796.61
2023-03-10T11:09:54.830Z,98792.94
2023-03-10T11:11:31.190Z,98786.56
2023-03-10T11:12:37.323Z,98789.25
2023-03-10T11:14:14.519Z,98797.30
2023-03-10T11:15:28.204Z,98787.43
2023-03-10T11:16:47.736Z,98783.88
2023-03-10T11:17:54.426Z,98795.63
2023-03-10T11:19:03.694Z,98793.92
2023-03-10T11:20:19.559Z,98790.41
2023-03-10T11:21:27.994Z,98789.54
2023-03-10T11:22:42.434Z,98791.39
2023-03-10T11:25:32.328Z,98775.44
2023-03-10T11:26:53.880Z,98797.88
2023-03-10T11:28:18.870Z,98798.72
2023-03-10T11:29:40.990Z,98804.08
2023-03-10T11:30:53.492Z,98797.88
2023-03-10T11:32:22.968Z,98794.36
2023-03-10T11:33:47.716Z,98800.56
2023-03-10T11:34:52.581Z,98804.23
2023-03-10T11:37:22.764Z,98804.25
2023-03-10T11:38:37.989Z,98806.22
2023-03-10T11:39:58.307Z,98811.59
2023-03-10T11:41:20.808Z,98800.86
2023-03-10T11:42:33.103Z,98806.08
2023-03-10T11:43:54.756Z,98798.17
2023-03-10T11:45:03.881Z,98799.88
2023-03-10T11:46:10.538Z,98795.34
2023-03-10T11:47:37.067Z,98798.03
2023-03-10T11:50:40.862Z,98789.86
2023-03-10T11:51:45.964Z,98789.14
2023-03-10T11:52:48.456Z,98791.94
2023-03-10T11:53:55.103Z,98792.80
2023-03-10T11:55:03.718Z,98794.51
2023-03-10T11:56:09.169Z,98798.03
2023-03-10T11:57:19.958Z,98802.56
2023-03-10T11:58:33.459Z,98790.81
2023-03-10T11:59:38.142Z,98789.83
2023-03-10T12:00:42.164Z,98788.85
2023-03-10T12:01:49.270Z,98781.63
2023-03-10T12:03:07.889Z,98783.34
2023-03-10T12:04:20.958Z,98787.72
2023-03-10T12:05:25.285Z,98786.86
2023-03-10T12:06:41.494Z,98786.71
2023-03-10T12:07:48.607Z,98783.19
2023-03-10T12:08:51.582Z,98779.67
2023-03-10T12:09:57.073Z,98774.16
2023-03-10T12:11:00.390Z,98775.14
2023-03-10T12:12:03.495Z,98775.14
2023-03-10T12:13:08.126Z,98781.20
2023-03-10T12:14:10.909Z,98773.14
2023-03-10T12:16:36.207Z,98770.22
2023-03-10T12:17:38.907Z,98765.84
2023-03-10T12:18:41.454Z,98773.75
2023-03-10T12:20:14.718Z,98771.91
2023-03-10T12:22:51.235Z,98774.99
2023-03-10T12:23:57.940Z,98777.84
2023-03-10T12:25:00.374Z,98770.62
2023-03-10T12:26:04.340Z,98761.73
2023-03-10T12:27:07.994Z,98755.54
2023-03-10T12:28:19.396Z,98758.08
2023-03-10T12:29:28.545Z,98754.38
2023-03-10T12:30:52.572Z,98745.34
2023-03-10T12:31:56.742Z,98742.66
2023-03-10T12:32:59.336Z,98761.30
2023-03-10T12:34:10.699Z,98750.56
2023-03-10T12:37:11.051Z,98747.70
2023-03-10T12:38:30.003Z,98755.78
2023-03-10T12:40:51.276Z,98760.29
2023-03-10T12:42:05.291Z,98760.46
2023-03-10T12:45:24.872Z,98761.13
2023-03-10T12:46:54.543Z,98771.20
2023-03-10T12:49:33.785Z,98760.44
2023-03-10T12:50:45.956Z,98767.80
2023-03-10T12:51:56.294Z,98772.18
2023-03-10T12:53:03.212Z,98771.34
2023-03-10T12:54:34.159Z,98770.48
2023-03-10T12:55:36.854Z,98767.68
2023-03-10T12:56:41.597Z,98770.22
2023-03-10T12:57:50.646Z,98768.52
2023-03-10T12:59:00.349Z,98760.46
2023-03-10T13:00:07.149Z,98755.93
2023-03-10T13:01:12.181Z,98759.33
2023-03-10T13:02:31.569Z,98753.96
2023-03-10T13:03:49.727Z,98751.28
2023-03-10T13:04:57.010Z,98754.65
2023-03-10T13:06:18.775Z,98741.23
2023-03-10T13:07:21.226Z,98740.39
2023-03-10T13:08:34.120Z,98741.23
2023-03-10T13:09:38.437Z,98729.81
2023-03-10T13:10:42.244Z,98736.01
2023-03-10T13:12:00.535Z,98736.01
2023-03-10T13:13:05.791Z,98737.14
2023-03-10T13:14:18.012Z,98740.84
2023-03-10T13:15:27.560Z,98742.66
2023-03-10T13:16:30.589Z,98749.88
2023-03-10T13:17:34.571Z,98739.28
2023-03-10T13:18:38.196Z,98730.37
2023-03-10T13:19:41.992Z,98736.60
2023-03-10T13:20:46.384Z,98735.73
2023-03-10T13:21:49.920Z,98727.69
2023-03-10T13:22:59.018Z,98726.84
2023-03-10T13:24:03.745Z,98717.97